Time;durP1;ratioP1;P1;durP2;ratioP2;P2;SDS_P1;SDS_P2;PMS_P1;PMS_P2;Temp;Humidity;BMP_temperature;BMP_pressure;BME280_temperature;BME280_humidity;BME280_pressure;Samples;Min_cycle;Max_cycle;Signal;HPM_P1;HPM_P2
2023/05/19 00:02:07;;;;;;;5.07;3.88;;;11.40;99.90;;;;;;6130903;23;20206;-82
2023/05/19 00:04:36;;;;;;;5.10;3.90;;;11.20;99.90;;;;;;6104982;23;20193;-81
2023/05/19 00:07:04;;;;;;;6.07;4.03;;;11.00;99.90;;;;;;6106514;23;20246;-81
2023/05/19 00:09:32;;;;;;;5.50;3.95;;;11.00;99.90;;;;;;6131788;23;20199;-83
2023/05/19 00:11:59;;;;;;;5.55;4.63;;;11.10;99.90;;;;;;6131204;23;20196;-81
2023/05/19 00:14:28;;;;;;;5.53;4.22;;;11.10;99.90;;;;;;6131843;23;20690;-80
2023/05/19 00:17:03;;;;;;;5.95;4.50;;;11.00;99.90;;;;;;6104760;23;20425;-81
2023/05/19 00:19:32;;;;;;;4.38;3.47;;;10.60;99.90;;;;;;6105741;23;20166;-81
2023/05/19 00:21:59;;;;;;;4.93;4.00;;;10.50;99.90;;;;;;6131474;23;20266;-80
2023/05/19 00:24:29;;;;;;;10.80;4.50;;;10.40;99.90;;;;;;6129252;23;20186;-81
2023/05/19 00:26:58;;;;;;;7.75;4.55;;;10.40;99.90;;;;;;6128195;23;20225;-81
2023/05/19 00:29:24;;;;;;;8.32;5.88;;;10.50;99.90;;;;;;6103245;23;20209;-81
2023/05/19 00:31:52;;;;;;;5.78;5.22;;;10.60;99.90;;;;;;6127392;23;20196;-82
2023/05/19 00:34:19;;;;;;;9.52;7.53;;;10.50;99.90;;;;;;6128117;23;20209;-82
2023/05/19 00:36:45;;;;;;;4.10;3.70;;;10.40;99.90;;;;;;6128557;23;20244;-83
2023/05/19 00:39:13;;;;;;;6.32;4.78;;;10.40;99.90;;;;;;6129193;23;20273;-82
2023/05/19 00:41:39;;;;;;;9.07;5.20;;;10.30;99.90;;;;;;6129305;23;20205;-80
2023/05/19 00:44:07;;;;;;;7.43;6.45;;;10.30;99.90;;;;;;6128719;23;20393;-80
2023/05/19 00:46:33;;;;;;;7.38;5.22;;;10.30;99.90;;;;;;6130188;23;20189;-80
2023/05/19 00:49:00;;;;;;;4.45;4.03;;;10.30;99.90;;;;;;6131592;23;20186;-81
2023/05/19 00:51:28;;;;;;;6.70;4.70;;;10.30;99.90;;;;;;6134191;23;20197;-82
2023/05/19 00:54:04;;;;;;;6.00;5.40;;;10.40;99.90;;;;;;6135052;23;20161;-82
2023/05/19 01:00:29;;;;;;;7.82;5.22;;;10.30;99.90;;;;;;6152656;23;20144;-86
2023/05/19 01:02:56;;;;;;;5.90;4.63;;;10.20;99.90;;;;;;6152602;23;20209;-82
2023/05/19 01:05:23;;;;;;;7.40;5.50;;;10.30;99.90;;;;;;6152389;23;20162;-82
2023/05/19 01:07:52;;;;;;;8.40;4.70;;;10.40;99.90;;;;;;6146675;23;20197;-81
2023/05/19 01:10:19;;;;;;;5.22;4.72;;;10.60;99.90;;;;;;6136137;23;20252;-80
2023/05/19 01:12:47;;;;;;;8.23;4.80;;;10.50;99.90;;;;;;6133155;23;20493;-83
2023/05/19 01:15:16;;;;;;;9.27;5.22;;;10.50;99.90;;;;;;6130155;23;20181;-78
2023/05/19 01:18:07;;;;;;;11.02;5.93;;;10.50;99.90;;;;;;6131478;23;20277;-81
2023/05/19 01:21:10;;;;;;;6.72;4.68;;;10.30;99.90;;;;;;6132677;23;20162;-80
2023/05/19 01:23:52;;;;;;;10.40;5.88;;;10.40;99.90;;;;;;6105894;23;20181;-82
2023/05/19 01:26:58;;;;;;;12.57;5.85;;;10.40;99.90;;;;;;6131172;23;20168;-79
2023/05/19 01:29:38;;;;;;;4.93;4.40;;;10.50;99.90;;;;;;6087949;23;20178;-80
2023/05/19 01:32:08;;;;;;;6.68;4.15;;;10.60;99.90;;;;;;6133165;23;20173;-80
2023/05/19 01:34:40;;;;;;;8.35;6.43;;;10.50;99.90;;;;;;6133994;23;20240;-82
2023/05/19 01:37:08;;;;;;;5.32;3.97;;;10.40;99.90;;;;;;6135180;23;20747;-79
2023/05/19 01:39:36;;;;;;;10.60;4.30;;;10.00;99.90;;;;;;6109397;23;20201;-80
2023/05/19 01:42:05;;;;;;;6.30;5.55;;;10.10;99.90;;;;;;6133859;23;20232;-81
2023/05/19 01:44:32;;;;;;;7.38;5.80;;;10.10;99.90;;;;;;6132076;23;20174;-81
2023/05/19 01:47:01;;;;;;;5.97;4.90;;;10.10;99.90;;;;;;6131166;23;20186;-80
2023/05/19 01:49:27;;;;;;;7.05;5.43;;;10.20;99.90;;;;;;6131898;23;20422;-78
2023/05/19 01:51:55;;;;;;;12.15;5.50;;;10.10;99.90;;;;;;6129970;23;20220;-76
2023/05/19 01:54:23;;;;;;;6.53;5.10;;;10.20;99.90;;;;;;6128947;23;20186;-80
2023/05/19 01:56:49;;;;;;;5.72;4.68;;;10.20;99.90;;;;;;6131317;23;20232;-79
2023/05/19 01:59:22;;;;;;;7.32;5.28;;;10.10;99.90;;;;;;6130386;23;20249;-81
2023/05/19 02:01:56;;;;;;;5.72;5.03;;;10.10;99.90;;;;;;6130055;23;20589;-82
2023/05/19 02:04:41;;;;;;;5.93;5.15;;;10.10;99.90;;;;;;6131111;23;20178;-80
2023/05/19 02:07:29;;;;;;;6.07;5.00;;;10.10;99.90;;;;;;6132011;23;20236;-81
2023/05/19 02:10:13;;;;;;;5.63;5.05;;;10.20;99.90;;;;;;6129200;23;20308;-82
2023/05/19 02:12:43;;;;;;;5.75;4.95;;;10.20;99.90;;;;;;6129001;23;20198;-78
2023/05/19 02:15:15;;;;;;;6.00;5.03;;;10.20;99.90;;;;;;6130964;23;20253;-82
2023/05/19 02:17:50;;;;;;;6.90;5.30;;;10.30;99.90;;;;;;6131515;23;20170;-81
2023/05/19 02:20:17;;;;;;;5.05;4.30;;;10.10;99.90;;;;;;6132533;23;20177;-80
2023/05/19 02:22:45;;;;;;;7.68;5.18;;;10.20;99.90;;;;;;6134816;23;20197;-81
2023/05/19 02:25:12;;;;;;;6.10;4.72;;;10.20;99.90;;;;;;6135191;23;20240;-81
2023/05/19 02:27:40;;;;;;;6.13;4.82;;;10.10;99.90;;;;;;6135330;23;20205;-81
2023/05/19 02:30:08;;;;;;;5.20;4.68;;;10.10;99.90;;;;;;6107641;23;20190;-81
2023/05/19 02:32:35;;;;;;;7.32;5.60;;;10.30;99.90;;;;;;6133002;23;20190;-83
2023/05/19 02:35:02;;;;;;;5.65;4.68;;;10.30;99.90;;;;;;6108206;23;20178;-79
2023/05/19 02:37:31;;;;;;;7.93;4.60;;;10.50;99.90;;;;;;6132545;23;20724;-81
2023/05/19 02:39:58;;;;;;;7.50;6.20;;;10.50;99.90;;;;;;6132216;23;20205;-82
2023/05/19 02:42:25;;;;;;;8.10;4.75;;;10.80;99.90;;;;;;6131980;23;20198;-83
2023/05/19 02:44:53;;;;;;;8.02;5.65;;;10.60;99.90;;;;;;6131582;23;20777;-79
2023/05/19 02:47:20;;;;;;;6.18;4.45;;;10.40;99.90;;;;;;6132605;23;20233;-81
2023/05/19 02:49:47;;;;;;;7.35;5.25;;;10.50;99.90;;;;;;6132151;23;20224;-81
2023/05/19 02:52:14;;;;;;;4.70;4.10;;;10.40;99.90;;;;;;6132005;23;20197;-81
2023/05/19 02:54:41;;;;;;;7.82;4.88;;;10.50;99.90;;;;;;6132460;23;20220;-82
2023/05/19 02:57:09;;;;;;;5.90;5.10;;;10.50;99.90;;;;;;6104256;23;20212;-82
2023/05/19 02:59:37;;;;;;;6.22;4.88;;;10.40;99.90;;;;;;6131235;23;20201;-82
2023/05/19 03:02:04;;;;;;;5.47;4.78;;;10.20;99.90;;;;;;6131544;23;20237;-79
2023/05/19 03:04:31;;;;;;;5.10;3.90;;;10.30;99.90;;;;;;6130147;23;20228;-82
2023/05/19 03:06:58;;;;;;;6.25;5.00;;;10.40;99.90;;;;;;6106709;23;20245;-81
2023/05/19 03:09:25;;;;;;;5.93;4.25;;;10.40;99.90;;;;;;6130735;23;20199;-82
2023/05/19 03:11:53;;;;;;;10.13;4.97;;;10.60;99.90;;;;;;6129443;23;20654;-79
2023/05/19 03:14:22;;;;;;;6.68;4.50;;;10.60;99.90;;;;;;6130343;23;20221;-82
2023/05/19 03:16:50;;;;;;;7.32;4.10;;;10.60;99.90;;;;;;6132139;23;20541;-82
2023/05/19 03:19:17;;;;;;;5.47;4.50;;;10.60;99.90;;;;;;6107973;23;20169;-78
2023/05/19 03:21:44;;;;;;;8.75;3.88;;;10.40;99.90;;;;;;6111908;23;20540;-80
2023/05/19 03:24:12;;;;;;;7.43;4.07;;;10.40;99.90;;;;;;6144172;23;20188;-82
2023/05/19 03:26:41;;;;;;;4.15;3.58;;;10.70;99.90;;;;;;6142811;23;20185;-82
2023/05/19 03:29:08;;;;;;;7.40;4.65;;;10.60;99.90;;;;;;6136845;23;20209;-80
2023/05/19 03:31:37;;;;;;;5.10;4.07;;;10.70;99.90;;;;;;6130989;23;20190;-81
2023/05/19 03:34:03;;;;;;;9.25;5.07;;;10.50;99.90;;;;;;6130749;23;20197;-79
2023/05/19 03:36:30;;;;;;;7.82;4.50;;;10.40;99.90;;;;;;6129860;23;20208;-81
2023/05/19 03:38:58;;;;;;;8.40;4.05;;;10.60;99.90;;;;;;6130084;23;20177;-80
2023/05/19 03:41:24;;;;;;;4.47;4.03;;;10.70;99.90;;;;;;6128555;23;20406;-81
2023/05/19 03:43:53;;;;;;;4.55;3.78;;;10.70;99.90;;;;;;6130187;23;20213;-81
2023/05/19 03:46:19;;;;;;;9.43;4.80;;;10.70;99.90;;;;;;6129675;23;20248;-81
2023/05/19 03:48:47;;;;;;;6.75;5.70;;;10.70;99.90;;;;;;6103844;23;20433;-81
2023/05/19 03:51:14;;;;;;;6.40;5.60;;;10.70;99.90;;;;;;6129412;23;20185;-81
2023/05/19 03:53:41;;;;;;;5.32;4.75;;;10.70;99.90;;;;;;6129616;23;20221;-80
2023/05/19 03:56:12;;;;;;;7.43;4.72;;;11.00;99.90;;;;;;6129292;23;20245;-79
2023/05/19 03:58:43;;;;;;;9.05;5.07;;;11.10;99.90;;;;;;6129554;23;20170;-78
2023/05/19 04:01:10;;;;;;;7.00;4.95;;;11.10;99.90;;;;;;6128615;23;20196;-79
2023/05/19 04:03:37;;;;;;;7.80;3.75;;;10.90;99.90;;;;;;6129558;23;20206;-79
2023/05/19 04:06:05;;;;;;;5.93;4.85;;;11.00;99.90;;;;;;6129650;23;20186;-88
2023/05/19 04:08:33;;;;;;;6.78;4.22;;;11.00;99.90;;;;;;6129294;23;20181;-81
2023/05/19 04:11:00;;;;;;;8.30;4.38;;;11.00;99.90;;;;;;6130970;23;20441;-81
2023/05/19 04:13:27;;;;;;;5.88;4.75;;;11.00;99.90;;;;;;6106249;23;20213;-78
2023/05/19 04:15:55;;;;;;;5.95;4.40;;;11.00;99.90;;;;;;6131346;23;20193;-83
2023/05/19 04:18:22;;;;;;;5.00;4.50;;;11.20;99.90;;;;;;6131671;23;20186;-80
2023/05/19 04:20:49;;;;;;;5.60;4.03;;;10.90;99.90;;;;;;6129575;23;20178;-84
2023/05/19 04:23:16;;;;;;;10.82;4.68;;;11.00;99.90;;;;;;6128461;23;20465;-78
2023/05/19 04:25:44;;;;;;;6.70;4.25;;;11.00;99.90;;;;;;6130234;23;20371;-82
2023/05/19 04:28:12;;;;;;;7.30;4.47;;;11.10;99.90;;;;;;6131832;23;20185;-80
2023/05/19 04:30:41;;;;;;;5.60;5.00;;;11.00;99.90;;;;;;6130512;23;20182;-82
2023/05/19 04:33:08;;;;;;;6.65;5.60;;;11.20;99.90;;;;;;6129740;23;20190;-83
2023/05/19 04:35:37;;;;;;;10.93;5.10;;;11.10;99.90;;;;;;6129033;23;20282;-80
2023/05/19 04:38:04;;;;;;;7.80;5.63;;;11.00;99.90;;;;;;6129966;23;20240;-80
2023/05/19 04:40:31;;;;;;;5.30;4.50;;;10.90;99.90;;;;;;6129653;23;20212;-80
2023/05/19 04:43:00;;;;;;;6.13;5.13;;;10.80;99.90;;;;;;6129039;23;20581;-82
2023/05/19 04:45:28;;;;;;;5.90;4.82;;;10.80;99.90;;;;;;6129552;23;20608;-82
2023/05/19 04:47:56;;;;;;;9.70;3.88;;;10.90;99.90;;;;;;6130072;23;20217;-78
2023/05/19 04:50:24;;;;;;;6.45;5.07;;;10.90;99.90;;;;;;6129166;23;20217;-77
2023/05/19 04:52:51;;;;;;;5.40;3.78;;;10.90;99.90;;;;;;6129981;23;20181;-84
2023/05/19 04:55:19;;;;;;;5.45;4.50;;;10.90;99.90;;;;;;6127023;23;20193;-81
2023/05/19 04:57:50;;;;;;;7.25;4.22;;;10.90;99.90;;;;;;6130209;23;20193;-82
2023/05/19 05:00:18;;;;;;;5.65;4.00;;;11.00;99.90;;;;;;6130507;23;20225;-81
2023/05/19 05:02:45;;;;;;;7.22;4.78;;;11.10;99.90;;;;;;6129828;23;20197;-80
2023/05/19 05:05:12;;;;;;;7.20;4.70;;;11.20;99.90;;;;;;6129533;23;20186;-79
2023/05/19 05:07:38;;;;;;;4.55;4.15;;;11.30;99.90;;;;;;6127549;23;20371;-79
2023/05/19 05:10:07;;;;;;;5.97;4.03;;;11.30;99.90;;;;;;6128458;23;20195;-82
2023/05/19 05:12:37;;;;;;;5.88;4.88;;;11.40;99.90;;;;;;6104251;23;20174;-83
2023/05/19 05:15:08;;;;;;;6.50;3.83;;;11.50;99.90;;;;;;6129211;23;20178;-82
2023/05/19 05:17:36;;;;;;;4.35;3.95;;;11.50;99.90;;;;;;6128317;23;20217;-82
2023/05/19 05:20:05;;;;;;;7.20;4.40;;;11.60;99.90;;;;;;6127612;23;20241;-82
2023/05/19 05:22:33;;;;;;;4.25;3.75;;;11.50;99.90;;;;;;6128400;23;20202;-81
2023/05/19 05:25:00;;;;;;;3.50;3.20;;;11.50;99.90;;;;;;6128812;23;20248;-80
2023/05/19 05:27:28;;;;;;;3.92;3.35;;;11.40;99.90;;;;;;6103785;23;20186;-82
2023/05/19 05:29:54;;;;;;;15.88;3.42;;;11.30;99.90;;;;;;6102550;23;20189;-79
2023/05/19 05:32:24;;;;;;;7.00;4.25;;;11.20;99.90;;;;;;6117039;23;20166;-79
2023/05/19 05:34:51;;;;;;;3.85;3.33;;;11.30;99.90;;;;;;6144993;23;20182;-82
2023/05/19 05:37:18;;;;;;;4.95;4.40;;;11.30;99.90;;;;;;6144303;23;20219;-80
2023/05/19 05:39:45;;;;;;;7.00;3.72;;;11.30;99.90;;;;;;6118301;23;20201;-80
2023/05/19 05:42:13;;;;;;;3.88;3.58;;;11.40;99.90;;;;;;6133636;23;20556;-81
2023/05/19 05:44:40;;;;;;;6.70;3.85;;;11.40;99.90;;;;;;6130435;23;20186;-80
2023/05/19 05:47:07;;;;;;;5.55;3.30;;;11.40;99.90;;;;;;6129985;23;20190;-81
2023/05/19 05:49:36;;;;;;;11.32;3.35;;;11.10;99.90;;;;;;6129128;23;20205;-81
2023/05/19 05:52:05;;;;;;;4.25;3.78;;;11.20;99.90;;;;;;6129687;23;20186;-80
2023/05/19 05:54:33;;;;;;;5.57;3.80;;;11.20;99.90;;;;;;6129477;23;20204;-77
2023/05/19 05:57:01;;;;;;;5.10;3.80;;;11.20;99.90;;;;;;6128999;23;20249;-80
2023/05/19 05:59:28;;;;;;;6.65;4.10;;;11.30;99.90;;;;;;6129180;23;20186;-81
2023/05/19 06:01:55;;;;;;;5.38;3.70;;;11.40;99.90;;;;;;6128480;23;20538;-78
2023/05/19 06:04:22;;;;;;;5.72;5.22;;;11.60;99.90;;;;;;6128962;23;20509;-80
2023/05/19 06:06:51;;;;;;;4.13;3.70;;;11.70;99.90;;;;;;6103661;23;20185;-80
2023/05/19 06:09:18;;;;;;;4.85;4.32;;;11.70;99.90;;;;;;6129153;23;20225;-81
2023/05/19 06:11:44;;;;;;;9.27;5.00;;;11.60;99.90;;;;;;6128468;23;20221;-79
2023/05/19 06:14:12;;;;;;;4.20;3.80;;;11.70;99.90;;;;;;6128852;23;20196;-81
2023/05/19 06:16:39;;;;;;;5.93;4.63;;;11.90;99.90;;;;;;6142902;23;20177;-82
2023/05/19 06:19:06;;;;;;;5.32;4.45;;;11.90;99.90;;;;;;6146445;23;20193;-79
2023/05/19 06:21:34;;;;;;;5.00;3.60;;;12.00;99.90;;;;;;6147699;23;20217;-79
2023/05/19 06:24:00;;;;;;;8.23;4.03;;;11.80;99.90;;;;;;6149306;23;20269;-79
2023/05/19 06:26:27;;;;;;;9.85;6.03;;;11.80;99.90;;;;;;6148795;23;20196;-82
2023/05/19 06:28:55;;;;;;;4.85;4.25;;;11.70;99.90;;;;;;6147616;23;20173;-80
2023/05/19 06:31:21;;;;;;;6.30;4.32;;;11.60;99.90;;;;;;6147751;23;20190;-81
2023/05/19 06:33:48;;;;;;;9.65;5.30;;;11.60;99.90;;;;;;6146927;23;20162;-79
2023/05/19 06:36:15;;;;;;;7.72;4.55;;;11.80;99.90;;;;;;6147073;23;20172;-77
2023/05/19 06:38:42;;;;;;;6.20;4.30;;;11.90;99.90;;;;;;6148051;23;20186;-80
2023/05/19 06:41:10;;;;;;;10.10;5.20;;;11.80;99.90;;;;;;6146846;23;20162;-79
2023/05/19 06:43:36;;;;;;;6.38;5.25;;;11.80;99.90;;;;;;6145902;23;20219;-80
2023/05/19 06:46:04;;;;;;;7.07;5.55;;;11.80;99.90;;;;;;6133453;23;20249;-80
2023/05/19 06:48:30;;;;;;;6.60;5.20;;;11.80;99.90;;;;;;6129840;23;20249;-80
2023/05/19 06:50:57;;;;;;;6.90;4.85;;;11.90;99.90;;;;;;6105119;23;20261;-82
2023/05/19 06:53:24;;;;;;;9.82;5.65;;;11.80;99.90;;;;;;6132030;23;20242;-79
2023/05/19 06:55:51;;;;;;;6.90;5.18;;;11.90;99.90;;;;;;6132403;23;20205;-80
2023/05/19 06:58:25;;;;;;;6.90;5.78;;;11.90;99.90;;;;;;6115563;23;20186;-78
2023/05/19 07:00:53;;;;;;;6.50;4.75;;;11.80;99.90;;;;;;6108109;23;20249;-80
2023/05/19 07:03:20;;;;;;;7.80;4.82;;;11.80;99.90;;;;;;6129525;23;20440;-80
2023/05/19 07:05:47;;;;;;;6.18;4.38;;;11.60;99.90;;;;;;6129393;23;20245;-78
2023/05/19 07:08:14;;;;;;;7.53;4.80;;;11.70;99.90;;;;;;6129792;23;20253;-82
2023/05/19 07:10:41;;;;;;;6.88;4.63;;;11.80;99.90;;;;;;6129425;23;20293;-78
2023/05/19 07:13:08;;;;;;;4.35;3.85;;;12.00;99.90;;;;;;6129345;23;20190;-83
2023/05/19 07:15:35;;;;;;;5.53;5.00;;;12.00;99.90;;;;;;6128767;23;20198;-79
2023/05/19 07:18:02;;;;;;;7.15;4.65;;;11.90;99.90;;;;;;6129029;23;20193;-80
2023/05/19 07:20:29;;;;;;;5.32;4.20;;;11.90;99.90;;;;;;6128022;23;20233;-78
2023/05/19 07:22:56;;;;;;;4.63;3.78;;;12.00;99.90;;;;;;6128646;23;20213;-79
2023/05/19 07:25:24;;;;;;;4.63;3.97;;;12.00;99.90;;;;;;6129451;23;20190;-81
2023/05/19 07:27:51;;;;;;;5.35;4.13;;;12.00;99.90;;;;;;6129001;23;20184;-78
2023/05/19 07:30:18;;;;;;;6.35;4.90;;;12.10;99.90;;;;;;6128753;23;20205;-79
2023/05/19 07:32:45;;;;;;;4.90;4.40;;;12.20;99.90;;;;;;6128636;23;20322;-79
2023/05/19 07:35:13;;;;;;;9.85;4.40;;;12.10;99.90;;;;;;6128886;23;20608;-79
2023/05/19 07:37:40;;;;;;;5.32;3.95;;;12.00;99.90;;;;;;6128419;23;20213;-80
2023/05/19 07:40:07;;;;;;;6.10;3.42;;;11.90;99.90;;;;;;6129086;23;20441;-79
2023/05/19 07:42:34;;;;;;;5.38;3.78;;;11.90;99.90;;;;;;6129750;23;20189;-79
2023/05/19 07:45:02;;;;;;;4.57;3.22;;;12.00;99.90;;;;;;6128724;23;20223;-81
2023/05/19 07:47:29;;;;;;;5.60;4.18;;;12.10;99.90;;;;;;6129703;23;20237;-80
2023/05/19 07:49:56;;;;;;;6.57;4.40;;;12.00;99.90;;;;;;6142400;23;20185;-79
2023/05/19 07:52:23;;;;;;;5.05;3.70;;;11.80;99.90;;;;;;6142208;23;20206;-80
2023/05/19 07:54:50;;;;;;;4.30;3.90;;;11.70;99.90;;;;;;6144594;23;20182;-83
2023/05/19 07:57:17;;;;;;;6.18;4.25;;;11.70;99.90;;;;;;6129513;23;20341;-81
2023/05/19 07:59:45;;;;;;;4.85;3.65;;;11.80;99.90;;;;;;6129000;23;20213;-84
2023/05/19 08:02:11;;;;;;;4.20;3.80;;;12.00;99.90;;;;;;6130131;23;20200;-79
2023/05/19 08:04:39;;;;;;;7.25;4.90;;;12.30;99.90;;;;;;6129606;23;20225;-80
2023/05/19 08:07:09;;;;;;;10.98;4.55;;;12.40;99.90;;;;;;6129161;23;20186;-79
2023/05/19 08:09:37;;;;;;;4.15;3.65;;;12.50;99.90;;;;;;6128993;23;20204;-80
2023/05/19 08:12:04;;;;;;;9.43;4.95;;;12.60;99.90;;;;;;6128614;23;20207;-81
2023/05/19 08:14:32;;;;;;;3.95;3.65;;;12.60;99.90;;;;;;6127770;23;20515;-78
2023/05/19 08:17:01;;;;;;;4.25;3.78;;;12.70;99.90;;;;;;6128679;23;20202;-79
2023/05/19 08:19:28;;;;;;;4.32;3.55;;;12.80;99.90;;;;;;6128283;23;20213;-79
2023/05/19 08:21:56;;;;;;;5.38;3.28;;;12.90;99.90;;;;;;6128715;23;20185;-81
2023/05/19 08:24:23;;;;;;;2.97;2.70;;;13.20;99.90;;;;;;6103464;23;20547;-82
2023/05/19 08:26:50;;;;;;;3.92;3.53;;;13.20;99.90;;;;;;6128412;23;20744;-79
2023/05/19 08:29:17;;;;;;;3.58;3.13;;;13.20;99.90;;;;;;6129039;23;20178;-78
2023/05/19 08:31:44;;;;;;;5.00;4.05;;;13.20;99.90;;;;;;6102165;23;20549;-80
2023/05/19 08:34:12;;;;;;;4.38;3.80;;;13.20;99.90;;;;;;6128588;23;20560;-81
2023/05/19 08:36:40;;;;;;;4.10;3.20;;;13.10;99.90;;;;;;6103222;23;20184;-79
2023/05/19 08:39:07;;;;;;;3.95;3.33;;;13.50;99.90;;;;;;6128791;23;20257;-80
2023/05/19 08:41:34;;;;;;;4.80;3.35;;;13.50;99.90;;;;;;6128482;23;20277;-79
2023/05/19 08:44:01;;;;;;;5.07;3.05;;;13.70;99.90;;;;;;6129194;23;20204;-81
2023/05/19 08:46:29;;;;;;;5.75;3.70;;;13.90;99.90;;;;;;6128032;23;20243;-81
2023/05/19 08:49:03;;;;;;;5.82;3.33;;;13.80;99.90;;;;;;6127776;23;20439;-79
2023/05/19 08:51:54;;;;;;;6.70;3.50;;;13.50;99.90;;;;;;6102041;23;20170;-79
2023/05/19 08:54:26;;;;;;;6.97;4.47;;;13.40;99.90;;;;;;6129316;23;20189;-82
2023/05/19 08:56:54;;;;;;;4.97;4.05;;;13.20;99.90;;;;;;6128486;23;20252;-79
2023/05/19 08:59:21;;;;;;;7.45;4.30;;;12.90;99.90;;;;;;6128406;23;20220;-79
2023/05/19 09:01:49;;;;;;;10.38;4.47;;;12.90;99.90;;;;;;6127724;23;20250;-77
2023/05/19 09:04:16;;;;;;;5.05;4.43;;;13.00;99.90;;;;;;6128128;23;20293;-79
2023/05/19 09:06:44;;;;;;;5.75;4.35;;;13.20;99.90;;;;;;6128284;23;20208;-80
2023/05/19 09:09:11;;;;;;;4.07;3.47;;;13.10;99.90;;;;;;6128719;23;20244;-80
2023/05/19 09:11:38;;;;;;;5.38;3.67;;;13.30;99.90;;;;;;6128225;23;20354;-78
2023/05/19 09:14:05;;;;;;;4.90;3.95;;;13.20;99.90;;;;;;6127435;23;20188;-82
2023/05/19 09:16:32;;;;;;;3.80;3.50;;;13.30;99.90;;;;;;6127983;23;20489;-80
2023/05/19 09:19:00;;;;;;;6.80;3.35;;;13.60;99.90;;;;;;6127264;23;20177;-80
2023/05/19 09:21:31;;;;;;;3.40;3.00;;;13.90;99.90;;;;;;6127457;23;20546;-80
2023/05/19 09:24:05;;;;;;;3.63;3.10;;;14.50;99.90;;;;;;6127892;23;20403;-81
2023/05/19 09:26:40;;;;;;;7.40;3.35;;;14.60;99.90;;;;;;6102687;23;20176;-77
2023/05/19 09:29:11;;;;;;;7.43;3.45;;;15.00;99.90;;;;;;6127951;23;20185;-77
2023/05/19 09:31:39;;;;;;;4.67;3.27;;;15.30;99.90;;;;;;6127718;23;20196;-82
2023/05/19 09:34:12;;;;;;;4.90;3.73;;;15.40;99.90;;;;;;6129059;23;20375;-78
2023/05/19 09:36:40;;;;;;;4.95;3.50;;;15.30;99.90;;;;;;6151475;23;20377;-79
2023/05/19 09:39:21;;;;;;;4.97;3.00;;;14.90;99.90;;;;;;6151085;23;20185;-79
2023/05/19 09:41:53;;;;;;;5.72;3.20;;;15.00;99.90;;;;;;6128085;23;20431;-77
2023/05/19 09:44:22;;;;;;;8.40;3.80;;;14.70;99.90;;;;;;6127780;23;20587;-77
2023/05/19 09:46:50;;;;;;;4.00;3.57;;;14.70;99.90;;;;;;6127684;23;20363;-81
2023/05/19 09:49:28;;;;;;;4.03;3.17;;;15.20;99.90;;;;;;6103435;23;20363;-77
2023/05/19 09:51:56;;;;;;;7.53;3.33;;;15.30;99.90;;;;;;6126862;23;20717;-81
2023/05/19 09:54:26;;;;;;;18.93;4.13;;;15.70;99.90;;;;;;6127623;23;20718;-79
2023/05/19 09:56:57;;;;;;;2.80;2.60;;;15.00;99.90;;;;;;6129408;23;20595;-80
2023/05/19 09:59:26;;;;;;;3.67;3.10;;;15.30;99.90;;;;;;6104987;23;20415;-79
2023/05/19 10:01:58;;;;;;;4.83;4.30;;;15.40;99.90;;;;;;6130445;23;20359;-83
2023/05/19 10:04:27;;;;;;;3.40;3.10;;;15.60;99.90;;;;;;6143454;23;20664;-80
2023/05/19 10:06:58;;;;;;;4.20;3.70;;;16.10;99.90;;;;;;6147026;23;20371;-80
2023/05/19 10:09:27;;;;;;;4.80;2.87;;;16.20;99.90;;;;;;6147300;23;20490;-80
2023/05/19 10:11:58;;;;;;;6.00;3.80;;;16.50;99.90;;;;;;6147209;23;20398;-79
2023/05/19 10:14:27;;;;;;;5.67;3.80;;;15.90;99.90;;;;;;6106521;23;20379;-84
2023/05/19 10:16:57;;;;;;;8.07;4.80;;;16.10;99.90;;;;;;6104976;23;20632;-80
2023/05/19 10:19:26;;;;;;;9.17;5.37;;;15.50;99.90;;;;;;6131040;23;20570;-80
2023/05/19 10:21:53;;;;;;;14.10;5.50;;;15.40;99.90;;;;;;6130775;23;20767;-80
2023/05/19 10:24:21;;;;;;;7.33;5.07;;;15.00;99.90;;;;;;6129488;23;20648;-79
2023/05/19 10:26:59;;;;;;;8.10;5.33;;;14.80;99.90;;;;;;6129364;23;20588;-82
2023/05/19 10:29:32;;;;;;;6.97;4.50;;;14.70;99.90;;;;;;6129991;23;20715;-80
2023/05/19 10:32:10;;;;;;;11.38;6.93;;;14.70;99.90;;;;;;6129228;23;20190;-78
2023/05/19 10:34:56;;;;;;;6.28;4.90;;;14.60;99.90;;;;;;6129215;23;20505;-78
2023/05/19 10:37:32;;;;;;;6.70;5.88;;;14.40;99.90;;;;;;6129947;23;20177;-79
2023/05/19 10:40:03;;;;;;;11.18;5.30;;;14.20;99.90;;;;;;6129528;23;20169;-80
2023/05/19 10:42:43;;;;;;;6.28;5.38;;;14.40;99.90;;;;;;6128147;23;20245;-78
2023/05/19 10:45:21;;;;;;;5.63;5.07;;;14.60;99.90;;;;;;6151207;23;20292;-78
2023/05/19 10:47:53;;;;;;;18.67;6.23;;;14.60;99.90;;;;;;6102536;23;20169;-77
2023/05/19 10:50:21;;;;;;;10.20;5.50;;;15.00;99.90;;;;;;6129564;23;20400;-79
2023/05/19 10:52:54;;;;;;;13.03;7.40;;;14.80;99.90;;;;;;6103849;23;20459;-80
2023/05/19 10:55:45;;;;;;;5.50;4.60;;;14.60;99.90;;;;;;6128908;23;20418;-77
2023/05/19 10:58:12;;;;;;;6.53;5.60;;;14.60;99.90;;;;;;6128631;23;20603;-80
2023/05/19 11:00:42;;;;;;;6.30;5.70;;;14.80;99.90;;;;;;6128303;23;20432;-83
2023/05/19 11:03:15;;;;;;;8.98;6.40;;;14.90;99.90;;;;;;6130545;23;20178;-78
2023/05/19 11:05:49;;;;;;;6.20;4.80;;;14.90;99.90;;;;;;6105638;23;20170;-81
2023/05/19 11:08:31;;;;;;;10.00;6.30;;;14.60;99.90;;;;;;6132989;23;20174;-78
2023/05/19 11:11:13;;;;;;;5.45;4.95;;;14.50;99.90;;;;;;6134388;23;20209;-80
2023/05/19 11:13:45;;;;;;;6.60;5.95;;;14.10;99.90;;;;;;6132545;23;20608;-80
2023/05/19 11:16:13;;;;;;;9.73;5.10;;;13.70;99.90;;;;;;6131875;23;20196;-78
2023/05/19 11:18:46;;;;;;;5.85;5.18;;;13.50;99.90;;;;;;6132772;23;20182;-82
2023/05/19 11:21:13;;;;;;;7.05;6.35;;;13.40;99.90;;;;;;6106182;23;20170;-81
2023/05/19 11:23:40;;;;;;;6.85;6.25;;;13.00;99.90;;;;;;6130631;23;20763;-82
2023/05/19 11:26:07;;;;;;;7.22;6.53;;;12.70;99.90;;;;;;6129726;23;20494;-77
2023/05/19 11:28:36;;;;;;;9.13;6.15;;;12.70;99.90;;;;;;6131105;23;20178;-83
2023/05/19 11:31:06;;;;;;;10.32;6.75;;;12.70;99.90;;;;;;6105457;23;20355;-84
2023/05/19 11:33:33;;;;;;;10.05;6.85;;;12.80;99.90;;;;;;6130592;23;20229;-84
2023/05/19 11:36:01;;;;;;;6.68;6.03;;;12.70;99.90;;;;;;6129964;23;20269;-82
2023/05/19 11:38:31;;;;;;;7.63;6.13;;;13.10;99.90;;;;;;6129710;23;20216;-80
2023/05/19 11:40:59;;;;;;;7.65;6.82;;;13.20;99.90;;;;;;6129499;23;20185;-83
2023/05/19 11:43:26;;;;;;;7.03;6.43;;;13.30;99.90;;;;;;6129700;23;20185;-80
2023/05/19 11:45:55;;;;;;;9.02;5.35;;;13.30;99.90;;;;;;6129448;23;20293;-78
2023/05/19 11:48:24;;;;;;;8.25;7.03;;;13.10;99.90;;;;;;6129554;23;20193;-79
2023/05/19 11:50:52;;;;;;;7.22;5.43;;;13.20;99.90;;;;;;6103419;23;20212;-76
2023/05/19 11:53:20;;;;;;;7.57;6.70;;;13.60;99.90;;;;;;6129093;23;20186;-80
2023/05/19 11:55:47;;;;;;;8.52;6.78;;;13.80;99.90;;;;;;6136851;23;20182;-82
2023/05/19 11:58:15;;;;;;;6.03;5.40;;;13.70;99.90;;;;;;6140472;23;20186;-79
2023/05/19 12:00:46;;;;;;;7.97;7.18;;;13.80;99.90;;;;;;6143103;23;20482;-79
2023/05/19 12:03:13;;;;;;;6.15;5.60;;;13.60;99.90;;;;;;6122547;23;20217;-81
2023/05/19 12:05:44;;;;;;;7.15;6.47;;;13.50;99.90;;;;;;6145756;23;20209;-80
2023/05/19 12:08:12;;;;;;;8.73;6.80;;;13.60;99.90;;;;;;6145756;23;20197;-79
2023/05/19 12:10:39;;;;;;;6.53;5.93;;;13.50;99.90;;;;;;6133332;23;20209;-81
2023/05/19 12:13:08;;;;;;;7.90;7.18;;;13.50;99.90;;;;;;6132941;23;20395;-79
2023/05/19 12:15:36;;;;;;;10.80;8.13;;;13.50;99.90;;;;;;6135026;23;20242;-79
2023/05/19 12:18:03;;;;;;;7.85;7.15;;;13.60;99.90;;;;;;6112676;23;20352;-79
2023/05/19 12:20:34;;;;;;;7.70;7.05;;;13.50;99.90;;;;;;6138871;23;20186;-80
2023/05/19 12:23:02;;;;;;;10.20;7.72;;;13.50;99.90;;;;;;6135999;23;20510;-78
2023/05/19 12:25:30;;;;;;;11.50;7.20;;;13.70;99.90;;;;;;6138504;23;20209;-82
2023/05/19 12:28:04;;;;;;;9.05;7.90;;;13.60;99.90;;;;;;6112560;23;20185;-79
2023/05/19 12:30:34;;;;;;;9.25;8.20;;;13.80;99.90;;;;;;6114262;23;20191;-80
2023/05/19 12:33:02;;;;;;;8.18;7.40;;;13.50;99.90;;;;;;6134096;23;20178;-78
2023/05/19 12:35:34;;;;;;;8.75;6.88;;;13.80;99.90;;;;;;6106615;23;20229;-81
2023/05/19 12:38:13;;;;;;;12.10;8.15;;;13.90;99.90;;;;;;6105576;23;20253;-78
2023/05/19 12:40:41;;;;;;;8.18;7.35;;;14.00;99.90;;;;;;6130141;23;20185;-81
2023/05/19 12:43:18;;;;;;;8.93;8.02;;;14.10;99.90;;;;;;6130230;23;20496;-80
2023/05/19 12:45:45;;;;;;;7.45;6.78;;;14.10;99.90;;;;;;6128832;23;20200;-80
2023/05/19 12:48:14;;;;;;;8.20;7.40;;;13.80;99.90;;;;;;6128184;23;20186;-80
2023/05/19 12:50:43;;;;;;;7.28;6.53;;;13.70;99.90;;;;;;6129137;23;20237;-82
2023/05/19 12:53:11;;;;;;;8.80;6.82;;;13.60;99.90;;;;;;6103528;23;20186;-78
2023/05/19 12:55:43;;;;;;;7.93;7.18;;;13.60;99.90;;;;;;6102200;23;20228;-77
2023/05/19 12:58:11;;;;;;;10.63;9.55;;;13.50;99.90;;;;;;6127949;23;20689;-81
2023/05/19 13:00:45;;;;;;;12.93;10.05;;;13.50;99.90;;;;;;6128721;23;20359;-80